sensor_id;sensor_type;location;lat;lon;timestamp;P1;durP1;ratioP1;P2;durP2;ratioP2
45326;SDS011;31062;49.678;24.560;2023-07-29T00:00:58;3.03;;;2.58;;
45326;SDS011;31062;49.678;24.560;2023-07-29T00:03:45;5.18;;;3.45;;
45326;SDS011;31062;49.678;24.560;2023-07-29T00:06:31;4.13;;;3.20;;
45326;SDS011;31062;49.678;24.560;2023-07-29T00:09:16;3.42;;;2.72;;
45326;SDS011;31062;49.678;24.560;2023-07-29T00:12:02;8.32;;;3.08;;
45326;SDS011;31062;49.678;24.560;2023-07-29T00:14:47;3.13;;;2.83;;
45326;SDS011;31062;49.678;24.560;2023-07-29T00:17:32;3.25;;;2.85;;
45326;SDS011;31062;49.678;24.560;2023-07-29T00:20:18;3.90;;;3.25;;
45326;SDS011;31062;49.678;24.560;2023-07-29T00:23:04;3.58;;;3.03;;
45326;SDS011;31062;49.678;24.560;2023-07-29T00:25:50;3.88;;;2.70;;
45326;SDS011;31062;49.678;24.560;2023-07-29T00:28:36;4.28;;;3.10;;
45326;SDS011;31062;49.678;24.560;2023-07-29T00:31:22;4.20;;;3.25;;
45326;SDS011;31062;49.678;24.560;2023-07-29T00:34:11;3.03;;;2.70;;
45326;SDS011;31062;49.678;24.560;2023-07-29T00:37:03;4.22;;;2.58;;
45326;SDS011;31062;49.678;24.560;2023-07-29T00:39:49;4.47;;;2.53;;
45326;SDS011;31062;49.678;24.560;2023-07-29T00:42:34;8.75;;;3.08;;
45326;SDS011;31062;49.678;24.560;2023-07-29T00:45:20;5.78;;;2.75;;
45326;SDS011;31062;49.678;24.560;2023-07-29T00:48:06;3.20;;;2.70;;
45326;SDS011;31062;49.678;24.560;2023-07-29T00:50:54;3.83;;;2.65;;
45326;SDS011;31062;49.678;24.560;2023-07-29T00:53:40;4.07;;;2.55;;
45326;SDS011;31062;49.678;24.560;2023-07-29T00:56:26;3.75;;;2.72;;
45326;SDS011;31062;49.678;24.560;2023-07-29T00:59:12;4.15;;;2.97;;
45326;SDS011;31062;49.678;24.560;2023-07-29T01:01:58;4.60;;;3.00;;
45326;SDS011;31062;49.678;24.560;2023-07-29T01:04:43;3.92;;;3.53;;
45326;SDS011;31062;49.678;24.560;2023-07-29T01:16:41;4.65;;;2.55;;
45326;SDS011;31062;49.678;24.560;2023-07-29T01:22:37;9.13;;;2.88;;
45326;SDS011;31062;49.678;24.560;2023-07-29T01:25:25;8.00;;;2.97;;
45326;SDS011;31062;49.678;24.560;2023-07-29T01:28:10;6.25;;;3.22;;
45326;SDS011;31062;49.678;24.560;2023-07-29T01:31:01;3.53;;;3.10;;
45326;SDS011;31062;49.678;24.560;2023-07-29T01:33:58;5.60;;;2.55;;
45326;SDS011;31062;49.678;24.560;2023-07-29T01:36:47;6.85;;;3.47;;
45326;SDS011;31062;49.678;24.560;2023-07-29T01:39:36;6.05;;;2.85;;
45326;SDS011;31062;49.678;24.560;2023-07-29T01:42:23;5.57;;;2.72;;
45326;SDS011;31062;49.678;24.560;2023-07-29T01:45:11;4.25;;;3.38;;
45326;SDS011;31062;49.678;24.560;2023-07-29T01:47:57;3.13;;;2.70;;
45326;SDS011;31062;49.678;24.560;2023-07-29T01:50:42;4.55;;;3.03;;
45326;SDS011;31062;49.678;24.560;2023-07-29T01:53:28;3.88;;;2.67;;
45326;SDS011;31062;49.678;24.560;2023-07-29T01:56:14;3.13;;;2.42;;
45326;SDS011;31062;49.678;24.560;2023-07-29T01:59:08;6.65;;;2.63;;
45326;SDS011;31062;49.678;24.560;2023-07-29T02:01:53;4.13;;;3.03;;
45326;SDS011;31062;49.678;24.560;2023-07-29T02:04:39;6.78;;;3.58;;
45326;SDS011;31062;49.678;24.560;2023-07-29T02:07:24;3.28;;;2.83;;
45326;SDS011;31062;49.678;24.560;2023-07-29T02:10:12;5.20;;;2.90;;
45326;SDS011;31062;49.678;24.560;2023-07-29T02:12:57;3.17;;;2.55;;
45326;SDS011;31062;49.678;24.560;2023-07-29T02:15:43;9.27;;;3.45;;
45326;SDS011;31062;49.678;24.560;2023-07-29T02:18:29;4.18;;;2.63;;
45326;SDS011;31062;49.678;24.560;2023-07-29T02:21:14;7.60;;;2.65;;
45326;SDS011;31062;49.678;24.560;2023-07-29T02:24:00;5.18;;;2.63;;
45326;SDS011;31062;49.678;24.560;2023-07-29T02:26:45;3.45;;;2.60;;
45326;SDS011;31062;49.678;24.560;2023-07-29T02:29:31;6.25;;;3.70;;
45326;SDS011;31062;49.678;24.560;2023-07-29T02:32:18;6.50;;;3.00;;
45326;SDS011;31062;49.678;24.560;2023-07-29T02:35:04;3.92;;;3.22;;
45326;SDS011;31062;49.678;24.560;2023-07-29T02:37:50;3.88;;;2.97;;
45326;SDS011;31062;49.678;24.560;2023-07-29T02:40:38;4.10;;;3.03;;
45326;SDS011;31062;49.678;24.560;2023-07-29T02:43:23;9.32;;;3.33;;
45326;SDS011;31062;49.678;24.560;2023-07-29T02:46:09;5.43;;;2.80;;
45326;SDS011;31062;49.678;24.560;2023-07-29T02:48:55;8.50;;;2.78;;
45326;SDS011;31062;49.678;24.560;2023-07-29T02:51:40;6.10;;;3.42;;
45326;SDS011;31062;49.678;24.560;2023-07-29T02:54:25;2.83;;;2.45;;
45326;SDS011;31062;49.678;24.560;2023-07-29T02:57:13;7.63;;;2.80;;
45326;SDS011;31062;49.678;24.560;2023-07-29T02:59:59;12.15;;;4.60;;
45326;SDS011;31062;49.678;24.560;2023-07-29T03:02:44;6.35;;;3.60;;
45326;SDS011;31062;49.678;24.560;2023-07-29T03:05:30;5.68;;;2.80;;
45326;SDS011;31062;49.678;24.560;2023-07-29T03:08:17;4.07;;;3.20;;
45326;SDS011;31062;49.678;24.560;2023-07-29T03:11:09;3.17;;;2.88;;
45326;SDS011;31062;49.678;24.560;2023-07-29T03:13:57;5.60;;;3.20;;
45326;SDS011;31062;49.678;24.560;2023-07-29T03:16:43;3.85;;;2.70;;
45326;SDS011;31062;49.678;24.560;2023-07-29T03:19:29;7.25;;;3.13;;
45326;SDS011;31062;49.678;24.560;2023-07-29T03:22:15;5.07;;;2.60;;
45326;SDS011;31062;49.678;24.560;2023-07-29T03:25:01;6.57;;;2.50;;
45326;SDS011;31062;49.678;24.560;2023-07-29T03:27:46;6.32;;;3.22;;
45326;SDS011;31062;49.678;24.560;2023-07-29T03:30:34;8.25;;;2.75;;
45326;SDS011;31062;49.678;24.560;2023-07-29T03:33:20;5.80;;;2.67;;
45326;SDS011;31062;49.678;24.560;2023-07-29T03:36:06;5.60;;;3.42;;
45326;SDS011;31062;49.678;24.560;2023-07-29T03:38:51;3.92;;;3.35;;
45326;SDS011;31062;49.678;24.560;2023-07-29T03:41:37;4.93;;;2.95;;
45326;SDS011;31062;49.678;24.560;2023-07-29T03:44:23;5.88;;;3.08;;
45326;SDS011;31062;49.678;24.560;2023-07-29T03:47:09;5.47;;;3.20;;
45326;SDS011;31062;49.678;24.560;2023-07-29T03:49:57;3.30;;;3.00;;
45326;SDS011;31062;49.678;24.560;2023-07-29T03:52:42;4.78;;;3.15;;
45326;SDS011;31062;49.678;24.560;2023-07-29T03:55:28;4.60;;;3.55;;
45326;SDS011;31062;49.678;24.560;2023-07-29T03:58:17;3.83;;;2.97;;
45326;SDS011;31062;49.678;24.560;2023-07-29T04:01:02;4.32;;;2.83;;
45326;SDS011;31062;49.678;24.560;2023-07-29T04:03:49;5.65;;;2.88;;
45326;SDS011;31062;49.678;24.560;2023-07-29T04:06:37;9.93;;;3.85;;
45326;SDS011;31062;49.678;24.560;2023-07-29T04:09:23;3.83;;;2.83;;
45326;SDS011;31062;49.678;24.560;2023-07-29T04:12:09;3.75;;;2.70;;
45326;SDS011;31062;49.678;24.560;2023-07-29T04:14:55;5.65;;;2.92;;
45326;SDS011;31062;49.678;24.560;2023-07-29T04:17:40;3.15;;;2.85;;
45326;SDS011;31062;49.678;24.560;2023-07-29T04:20:26;6.90;;;2.63;;
45326;SDS011;31062;49.678;24.560;2023-07-29T04:23:11;9.95;;;3.70;;
45326;SDS011;31062;49.678;24.560;2023-07-29T04:25:57;34.75;;;8.90;;
45326;SDS011;31062;49.678;24.560;2023-07-29T04:28:42;6.32;;;3.88;;
45326;SDS011;31062;49.678;24.560;2023-07-29T04:31:28;8.77;;;3.30;;
45326;SDS011;31062;49.678;24.560;2023-07-29T04:34:14;4.85;;;2.53;;
45326;SDS011;31062;49.678;24.560;2023-07-29T04:36:59;9.85;;;3.40;;
45326;SDS011;31062;49.678;24.560;2023-07-29T04:39:45;4.07;;;2.75;;
45326;SDS011;31062;49.678;24.560;2023-07-29T04:42:32;4.00;;;2.90;;
45326;SDS011;31062;49.678;24.560;2023-07-29T04:45:17;3.10;;;2.65;;
45326;SDS011;31062;49.678;24.560;2023-07-29T04:48:03;6.22;;;3.03;;
45326;SDS011;31062;49.678;24.560;2023-07-29T04:50:49;17.35;;;3.40;;
45326;SDS011;31062;49.678;24.560;2023-07-29T04:53:34;8.63;;;3.00;;
45326;SDS011;31062;49.678;24.560;2023-07-29T04:56:21;3.42;;;2.80;;
45326;SDS011;31062;49.678;24.560;2023-07-29T04:59:07;3.83;;;2.50;;
45326;SDS011;31062;49.678;24.560;2023-07-29T05:01:53;4.32;;;2.45;;
45326;SDS011;31062;49.678;24.560;2023-07-29T05:04:39;3.75;;;2.55;;
45326;SDS011;31062;49.678;24.560;2023-07-29T05:07:24;8.63;;;3.10;;
45326;SDS011;31062;49.678;24.560;2023-07-29T05:10:10;7.70;;;3.00;;
45326;SDS011;31062;49.678;24.560;2023-07-29T05:12:56;4.35;;;2.95;;
45326;SDS011;31062;49.678;24.560;2023-07-29T05:15:42;4.47;;;2.92;;
45326;SDS011;31062;49.678;24.560;2023-07-29T05:18:27;5.40;;;3.08;;
45326;SDS011;31062;49.678;24.560;2023-07-29T05:21:12;3.13;;;2.38;;
45326;SDS011;31062;49.678;24.560;2023-07-29T05:23:59;5.63;;;2.53;;
45326;SDS011;31062;49.678;24.560;2023-07-29T05:26:45;5.10;;;2.20;;
45326;SDS011;31062;49.678;24.560;2023-07-29T05:29:32;9.07;;;2.75;;
45326;SDS011;31062;49.678;24.560;2023-07-29T05:32:17;4.25;;;2.50;;
45326;SDS011;31062;49.678;24.560;2023-07-29T05:35:02;6.85;;;2.00;;
45326;SDS011;31062;49.678;24.560;2023-07-29T05:37:49;2.38;;;2.17;;
45326;SDS011;31062;49.678;24.560;2023-07-29T05:40:35;4.65;;;2.25;;
45326;SDS011;31062;49.678;24.560;2023-07-29T05:43:21;2.85;;;2.05;;
45326;SDS011;31062;49.678;24.560;2023-07-29T05:46:07;6.95;;;1.83;;
45326;SDS011;31062;49.678;24.560;2023-07-29T05:48:53;2.03;;;1.40;;
45326;SDS011;31062;49.678;24.560;2023-07-29T05:51:39;1.70;;;1.60;;
45326;SDS011;31062;49.678;24.560;2023-07-29T05:54:24;4.45;;;1.90;;
45326;SDS011;31062;49.678;24.560;2023-07-29T05:57:10;1.92;;;1.67;;
45326;SDS011;31062;49.678;24.560;2023-07-29T05:59:57;2.53;;;1.63;;
45326;SDS011;31062;49.678;24.560;2023-07-29T06:02:42;2.63;;;1.80;;
45326;SDS011;31062;49.678;24.560;2023-07-29T06:05:33;2.45;;;2.00;;
45326;SDS011;31062;49.678;24.560;2023-07-29T06:08:20;1.88;;;1.67;;
45326;SDS011;31062;49.678;24.560;2023-07-29T06:11:06;1.70;;;1.60;;
45326;SDS011;31062;49.678;24.560;2023-07-29T06:13:52;3.17;;;1.38;;
45326;SDS011;31062;49.678;24.560;2023-07-29T06:16:37;1.90;;;1.80;;
45326;SDS011;31062;49.678;24.560;2023-07-29T06:19:23;1.40;;;1.30;;
45326;SDS011;31062;49.678;24.560;2023-07-29T06:22:09;3.22;;;1.58;;
45326;SDS011;31062;49.678;24.560;2023-07-29T06:24:55;1.40;;;1.30;;
45326;SDS011;31062;49.678;24.560;2023-07-29T06:27:40;1.98;;;1.77;;
45326;SDS011;31062;49.678;24.560;2023-07-29T06:30:26;4.72;;;1.60;;
45326;SDS011;31062;49.678;24.560;2023-07-29T06:33:11;2.58;;;1.80;;
45326;SDS011;31062;49.678;24.560;2023-07-29T06:35:57;1.50;;;1.35;;
45326;SDS011;31062;49.678;24.560;2023-07-29T06:38:42;1.35;;;1.25;;
45326;SDS011;31062;49.678;24.560;2023-07-29T06:41:27;1.70;;;1.58;;
45326;SDS011;31062;49.678;24.560;2023-07-29T06:44:13;3.47;;;1.60;;
45326;SDS011;31062;49.678;24.560;2023-07-29T06:46:58;1.88;;;1.77;;
45326;SDS011;31062;49.678;24.560;2023-07-29T06:49:45;1.50;;;1.40;;
45326;SDS011;31062;49.678;24.560;2023-07-29T06:52:31;2.08;;;1.77;;
45326;SDS011;31062;49.678;24.560;2023-07-29T06:55:16;2.97;;;1.92;;
45326;SDS011;31062;49.678;24.560;2023-07-29T06:58:02;1.95;;;1.73;;
45326;SDS011;31062;49.678;24.560;2023-07-29T07:00:48;2.45;;;1.85;;
45326;SDS011;31062;49.678;24.560;2023-07-29T07:03:33;1.70;;;1.60;;
45326;SDS011;31062;49.678;24.560;2023-07-29T07:06:19;2.90;;;2.00;;
45326;SDS011;31062;49.678;24.560;2023-07-29T07:09:04;2.00;;;1.60;;
45326;SDS011;31062;49.678;24.560;2023-07-29T07:11:50;1.77;;;1.67;;
45326;SDS011;31062;49.678;24.560;2023-07-29T07:14:36;1.90;;;1.70;;
45326;SDS011;31062;49.678;24.560;2023-07-29T07:17:22;2.95;;;1.73;;
45326;SDS011;31062;49.678;24.560;2023-07-29T07:20:10;3.72;;;1.70;;
45326;SDS011;31062;49.678;24.560;2023-07-29T07:22:56;5.72;;;1.73;;
45326;SDS011;31062;49.678;24.560;2023-07-29T07:25:42;3.85;;;1.52;;
45326;SDS011;31062;49.678;24.560;2023-07-29T07:28:28;2.33;;;1.77;;
45326;SDS011;31062;49.678;24.560;2023-07-29T07:31:13;1.70;;;1.60;;
45326;SDS011;31062;49.678;24.560;2023-07-29T07:33:59;2.25;;;1.67;;
45326;SDS011;31062;49.678;24.560;2023-07-29T07:36:44;1.88;;;1.75;;
45326;SDS011;31062;49.678;24.560;2023-07-29T07:39:31;1.90;;;1.63;;
45326;SDS011;31062;49.678;24.560;2023-07-29T07:42:17;1.77;;;1.50;;
45326;SDS011;31062;49.678;24.560;2023-07-29T07:45:02;1.45;;;1.35;;
45326;SDS011;31062;49.678;24.560;2023-07-29T07:47:48;2.15;;;1.95;;
45326;SDS011;31062;49.678;24.560;2023-07-29T07:50:34;5.68;;;1.45;;
45326;SDS011;31062;49.678;24.560;2023-07-29T07:53:19;3.35;;;1.52;;
45326;SDS011;31062;49.678;24.560;2023-07-29T07:56:08;5.72;;;1.80;;
45326;SDS011;31062;49.678;24.560;2023-07-29T07:58:53;3.90;;;1.85;;
45326;SDS011;31062;49.678;24.560;2023-07-29T08:01:39;3.50;;;1.40;;
45326;SDS011;31062;49.678;24.560;2023-07-29T08:04:25;6.93;;;1.92;;
45326;SDS011;31062;49.678;24.560;2023-07-29T08:07:10;2.25;;;1.30;;
45326;SDS011;31062;49.678;24.560;2023-07-29T08:09:57;2.53;;;1.63;;
45326;SDS011;31062;49.678;24.560;2023-07-29T08:12:48;2.50;;;1.30;;
45326;SDS011;31062;49.678;24.560;2023-07-29T08:15:47;5.25;;;1.48;;
45326;SDS011;31062;49.678;24.560;2023-07-29T08:18:48;3.38;;;1.55;;
45326;SDS011;31062;49.678;24.560;2023-07-29T08:21:35;2.05;;;1.10;;
45326;SDS011;31062;49.678;24.560;2023-07-29T08:24:21;1.80;;;1.70;;
45326;SDS011;31062;49.678;24.560;2023-07-29T08:27:07;1.67;;;1.25;;
45326;SDS011;31062;49.678;24.560;2023-07-29T08:29:53;1.85;;;1.38;;
45326;SDS011;31062;49.678;24.560;2023-07-29T08:32:39;4.00;;;1.40;;
45326;SDS011;31062;49.678;24.560;2023-07-29T08:35:25;1.65;;;1.50;;
45326;SDS011;31062;49.678;24.560;2023-07-29T08:38:10;1.63;;;1.50;;
45326;SDS011;31062;49.678;24.560;2023-07-29T08:44:09;1.40;;;1.30;;
45326;SDS011;31062;49.678;24.560;2023-07-29T08:47:05;1.65;;;1.35;;
45326;SDS011;31062;49.678;24.560;2023-07-29T08:49:52;3.72;;;1.50;;
45326;SDS011;31062;49.678;24.560;2023-07-29T08:52:49;4.35;;;1.40;;
45326;SDS011;31062;49.678;24.560;2023-07-29T08:55:43;1.80;;;1.50;;
45326;SDS011;31062;49.678;24.560;2023-07-29T08:58:31;4.40;;;1.67;;
45326;SDS011;31062;49.678;24.560;2023-07-29T09:01:25;1.90;;;1.42;;
45326;SDS011;31062;49.678;24.560;2023-07-29T09:04:13;4.90;;;1.40;;
45326;SDS011;31062;49.678;24.560;2023-07-29T09:06:59;1.48;;;1.38;;
45326;SDS011;31062;49.678;24.560;2023-07-29T09:09:50;4.38;;;1.30;;
45326;SDS011;31062;49.678;24.560;2023-07-29T09:12:39;2.13;;;1.77;;
45326;SDS011;31062;49.678;24.560;2023-07-29T09:15:26;3.33;;;1.75;;
45326;SDS011;31062;49.678;24.560;2023-07-29T09:18:18;4.47;;;1.23;;
45326;SDS011;31062;49.678;24.560;2023-07-29T09:21:05;3.22;;;1.27;;
45326;SDS011;31062;49.678;24.560;2023-07-29T09:23:54;1.90;;;1.23;;
45326;SDS011;31062;49.678;24.560;2023-07-29T09:26:48;4.25;;;1.27;;
45326;SDS011;31062;49.678;24.560;2023-07-29T09:29:37;1.98;;;1.42;;
45326;SDS011;31062;49.678;24.560;2023-07-29T09:32:24;5.50;;;1.20;;
45326;SDS011;31062;49.678;24.560;2023-07-29T09:35:12;5.95;;;1.30;;
45326;SDS011;31062;49.678;24.560;2023-07-29T09:38:00;1.45;;;1.35;;
45326;SDS011;31062;49.678;24.560;2023-07-29T09:40:46;1.15;;;1.05;;
45326;SDS011;31062;49.678;24.560;2023-07-29T09:43:33;2.45;;;1.60;;
45326;SDS011;31062;49.678;24.560;2023-07-29T09:46:19;1.60;;;1.50;;
45326;SDS011;31062;49.678;24.560;2023-07-29T09:49:09;1.88;;;1.40;;
45326;SDS011;31062;49.678;24.560;2023-07-29T09:51:56;4.15;;;1.27;;
45326;SDS011;31062;49.678;24.560;2023-07-29T09:54:42;2.60;;;1.30;;
45326;SDS011;31062;49.678;24.560;2023-07-29T09:57:30;1.42;;;1.33;;
45326;SDS011;31062;49.678;24.560;2023-07-29T10:00:15;5.18;;;1.20;;
45326;SDS011;31062;49.678;24.560;2023-07-29T10:03:01;1.70;;;1.52;;
45326;SDS011;31062;49.678;24.560;2023-07-29T10:05:47;2.88;;;1.58;;
45326;SDS011;31062;49.678;24.560;2023-07-29T10:08:34;1.50;;;1.40;;
45326;SDS011;31062;49.678;24.560;2023-07-29T10:11:20;3.28;;;1.55;;
45326;SDS011;31062;49.678;24.560;2023-07-29T10:14:08;1.75;;;1.65;;
45326;SDS011;31062;49.678;24.560;2023-07-29T10:16:54;1.52;;;1.42;;
45326;SDS011;31062;49.678;24.560;2023-07-29T10:19:41;1.55;;;1.45;;
45326;SDS011;31062;49.678;24.560;2023-07-29T10:22:34;1.50;;;1.40;;
45326;SDS011;31062;49.678;24.560;2023-07-29T10:25:22;1.80;;;1.60;;
45326;SDS011;31062;49.678;24.560;2023-07-29T10:28:10;1.40;;;1.30;;
45326;SDS011;31062;49.678;24.560;2023-07-29T10:31:05;2.67;;;1.35;;
45326;SDS011;31062;49.678;24.560;2023-07-29T10:33:56;1.40;;;1.30;;
45326;SDS011;31062;49.678;24.560;2023-07-29T10:36:42;2.30;;;1.40;;
45326;SDS011;31062;49.678;24.560;2023-07-29T10:39:38;2.30;;;1.30;;
45326;SDS011;31062;49.678;24.560;2023-07-29T10:42:26;3.47;;;1.50;;
45326;SDS011;31062;49.678;24.560;2023-07-29T10:45:18;5.82;;;1.65;;
45326;SDS011;31062;49.678;24.560;2023-07-29T10:48:12;2.28;;;1.80;;
45326;SDS011;31062;49.678;24.560;2023-07-29T10:51:24;3.60;;;1.38;;
45326;SDS011;31062;49.678;24.560;2023-07-29T10:54:12;3.10;;;1.63;;
45326;SDS011;31062;49.678;24.560;2023-07-29T10:57:02;2.13;;;1.65;;
45326;SDS011;31062;49.678;24.560;2023-07-29T10:59:54;4.38;;;2.00;;
45326;SDS011;31062;49.678;24.560;2023-07-29T11:02:41;1.50;;;1.40;;
45326;SDS011;31062;49.678;24.560;2023-07-29T11:05:27;1.67;;;1.58;;
45326;SDS011;31062;49.678;24.560;2023-07-29T11:08:31;1.58;;;1.48;;
45326;SDS011;31062;49.678;24.560;2023-07-29T11:11:19;1.85;;;1.27;;
45326;SDS011;31062;49.678;24.560;2023-07-29T11:14:05;1.60;;;1.45;;
45326;SDS011;31062;49.678;24.560;2023-07-29T11:16:53;1.50;;;1.40;;
45326;SDS011;31062;49.678;24.560;2023-07-29T11:19:39;1.67;;;1.58;;
45326;SDS011;31062;49.678;24.560;2023-07-29T11:22:26;1.58;;;1.40;;
45326;SDS011;31062;49.678;24.560;2023-07-29T11:25:12;2.85;;;1.20;;
45326;SDS011;31062;49.678;24.560;2023-07-29T11:27:59;1.83;;;1.48;;
45326;SDS011;31062;49.678;24.560;2023-07-29T11:30:51;1.33;;;1.23;;
45326;SDS011;31062;49.678;24.560;2023-07-29T11:33:38;1.30;;;1.20;;
45326;SDS011;31062;49.678;24.560;2023-07-29T11:36:25;3.33;;;1.10;;
45326;SDS011;31062;49.678;24.560;2023-07-29T11:39:11;2.65;;;1.33;;
45326;SDS011;31062;49.678;24.560;2023-07-29T11:41:58;2.85;;;1.17;;
45326;SDS011;31062;49.678;24.560;2023-07-29T11:44:44;2.00;;;1.20;;
45326;SDS011;31062;49.678;24.560;2023-07-29T11:47:30;1.33;;;1.25;;
45326;SDS011;31062;49.678;24.560;2023-07-29T11:50:16;3.95;;;1.45;;
45326;SDS011;31062;49.678;24.560;2023-07-29T11:53:02;3.90;;;1.52;;
45326;SDS011;31062;49.678;24.560;2023-07-29T11:55:50;4.03;;;1.20;;
45326;SDS011;31062;49.678;24.560;2023-07-29T11:58:38;2.80;;;1.55;;
45326;SDS011;31062;49.678;24.560;2023-07-29T12:01:23;5.18;;;1.40;;
45326;SDS011;31062;49.678;24.560;2023-07-29T12:04:09;1.50;;;1.40;;
45326;SDS011;31062;49.678;24.560;2023-07-29T12:06:55;1.48;;;1.38;;
45326;SDS011;31062;49.678;24.560;2023-07-29T12:09:42;1.60;;;1.50;;
45326;SDS011;31062;49.678;24.560;2023-07-29T12:12:28;1.73;;;1.63;;
45326;SDS011;31062;49.678;24.560;2023-07-29T12:15:13;4.57;;;1.48;;
45326;SDS011;31062;49.678;24.560;2023-07-29T12:18:08;1.63;;;1.52;;
45326;SDS011;31062;49.678;24.560;2023-07-29T12:20:58;1.23;;;1.13;;
45326;SDS011;31062;49.678;24.560;2023-07-29T12:23:51;1.55;;;1.45;;
45326;SDS011;31062;49.678;24.560;2023-07-29T12:26:36;2.38;;;2.10;;
45326;SDS011;31062;49.678;24.560;2023-07-29T12:29:30;3.20;;;1.70;;
45326;SDS011;31062;49.678;24.560;2023-07-29T12:32:28;1.23;;;1.13;;
45326;SDS011;31062;49.678;24.560;2023-07-29T12:35:14;1.58;;;1.35;;
45326;SDS011;31062;49.678;24.560;2023-07-29T12:38:00;1.75;;;1.65;;
45326;SDS011;31062;49.678;24.560;2023-07-29T12:40:46;1.92;;;1.73;;
45326;SDS011;31062;49.678;24.560;2023-07-29T12:43:31;2.13;;;1.83;;
45326;SDS011;31062;49.678;24.560;2023-07-29T12:46:17;1.55;;;1.40;;
45326;SDS011;31062;49.678;24.560;2023-07-29T12:49:03;1.58;;;1.48;;
45326;SDS011;31062;49.678;24.560;2023-07-29T12:51:49;3.47;;;1.50;;
45326;SDS011;31062;49.678;24.560;2023-07-29T12:54:34;1.70;;;1.55;;
45326;SDS011;31062;49.678;24.560;2023-07-29T12:57:20;1.80;;;1.45;;
45326;SDS011;31062;49.678;24.560;2023-07-29T13:00:06;1.98;;;1.67;;
45326;SDS011;31062;49.678;24.560;2023-07-29T13:02:54;1.30;;;1.20;;
45326;SDS011;31062;49.678;24.560;2023-07-29T13:05:39;1.38;;;1.27;;
45326;SDS011;31062;49.678;24.560;2023-07-29T13:08:25;1.98;;;1.52;;
45326;SDS011;31062;49.678;24.560;2023-07-29T13:11:11;1.60;;;1.50;;
45326;SDS011;31062;49.678;24.560;2023-07-29T13:13:57;2.53;;;1.50;;
45326;SDS011;31062;49.678;24.560;2023-07-29T13:16:42;3.95;;;2.50;;
45326;SDS011;31062;49.678;24.560;2023-07-29T13:19:28;3.95;;;1.83;;
45326;SDS011;31062;49.678;24.560;2023-07-29T13:22:13;2.13;;;1.40;;
45326;SDS011;31062;49.678;24.560;2023-07-29T13:25:00;2.95;;;2.42;;
45326;SDS011;31062;49.678;24.560;2023-07-29T13:27:45;10.82;;;5.93;;
45326;SDS011;31062;49.678;24.560;2023-07-29T13:30:31;4.18;;;3.25;;
45326;SDS011;31062;49.678;24.560;2023-07-29T13:33:16;3.38;;;2.90;;
45326;SDS011;31062;49.678;24.560;2023-07-29T13:36:02;3.50;;;3.05;;
45326;SDS011;31062;49.678;24.560;2023-07-29T13:38:48;3.83;;;2.88;;
45326;SDS011;31062;49.678;24.560;2023-07-29T13:41:33;4.72;;;3.05;;
45326;SDS011;31062;49.678;24.560;2023-07-29T13:44:19;4.88;;;3.40;;
45326;SDS011;31062;49.678;24.560;2023-07-29T13:47:08;10.68;;;6.28;;
45326;SDS011;31062;49.678;24.560;2023-07-29T13:49:53;7.72;;;5.75;;
45326;SDS011;31062;49.678;24.560;2023-07-29T13:52:39;5.00;;;3.60;;
45326;SDS011;31062;49.678;24.560;2023-07-29T13:55:24;2.80;;;2.30;;
45326;SDS011;31062;49.678;24.560;2023-07-29T13:58:10;2.33;;;2.08;;
45326;SDS011;31062;49.678;24.560;2023-07-29T14:00:57;5.28;;;2.10;;
45326;SDS011;31062;49.678;24.560;2023-07-29T14:03:44;2.17;;;1.98;;
45326;SDS011;31062;49.678;24.560;2023-07-29T14:06:30;3.25;;;1.40;;
45326;SDS011;31062;49.678;24.560;2023-07-29T14:09:30;1.73;;;1.40;;
45326;SDS011;31062;49.678;24.560;2023-07-29T14:12:15;1.38;;;1.25;;
45326;SDS011;31062;49.678;24.560;2023-07-29T14:15:01;5.55;;;2.80;;
45326;SDS011;31062;49.678;24.560;2023-07-29T14:17:48;6.28;;;2.78;;
45326;SDS011;31062;49.678;24.560;2023-07-29T14:20:34;2.97;;;1.95;;
45326;SDS011;31062;49.678;24.560;2023-07-29T14:23:19;2.42;;;2.20;;
45326;SDS011;31062;49.678;24.560;2023-07-29T14:26:05;2.53;;;2.00;;
45326;SDS011;31062;49.678;24.560;2023-07-29T14:28:51;4.05;;;2.00;;
45326;SDS011;31062;49.678;24.560;2023-07-29T14:31:37;1.80;;;1.65;;
45326;SDS011;31062;49.678;24.560;2023-07-29T14:34:22;2.45;;;1.90;;
45326;SDS011;31062;49.678;24.560;2023-07-29T14:37:08;4.15;;;1.98;;
45326;SDS011;31062;49.678;24.560;2023-07-29T14:39:55;2.33;;;1.85;;
45326;SDS011;31062;49.678;24.560;2023-07-29T14:42:41;5.13;;;2.22;;
45326;SDS011;31062;49.678;24.560;2023-07-29T14:45:27;10.93;;;5.82;;
45326;SDS011;31062;49.678;24.560;2023-07-29T14:48:13;16.25;;;8.82;;
45326;SDS011;31062;49.678;24.560;2023-07-29T14:51:00;11.40;;;7.07;;
45326;SDS011;31062;49.678;24.560;2023-07-29T14:53:49;19.13;;;10.38;;
45326;SDS011;31062;49.678;24.560;2023-07-29T14:56:35;30.88;;;15.95;;
45326;SDS011;31062;49.678;24.560;2023-07-29T14:59:22;16.83;;;10.45;;
45326;SDS011;31062;49.678;24.560;2023-07-29T15:02:12;14.27;;;8.32;;
45326;SDS011;31062;49.678;24.560;2023-07-29T15:04:59;12.77;;;7.43;;
45326;SDS011;31062;49.678;24.560;2023-07-29T15:07:46;5.88;;;4.85;;
45326;SDS011;31062;49.678;24.560;2023-07-29T15:10:32;3.10;;;2.55;;
45326;SDS011;31062;49.678;24.560;2023-07-29T15:13:17;5.43;;;2.58;;
45326;SDS011;31062;49.678;24.560;2023-07-29T15:16:03;2.95;;;2.33;;
45326;SDS011;31062;49.678;24.560;2023-07-29T15:18:49;6.72;;;3.08;;
45326;SDS011;31062;49.678;24.560;2023-07-29T15:21:35;4.50;;;3.47;;
45326;SDS011;31062;49.678;24.560;2023-07-29T15:24:21;5.88;;;3.80;;
45326;SDS011;31062;49.678;24.560;2023-07-29T15:27:06;4.60;;;2.55;;
45326;SDS011;31062;49.678;24.560;2023-07-29T15:29:52;5.85;;;2.20;;
45326;SDS011;31062;49.678;24.560;2023-07-29T15:32:38;2.75;;;2.20;;
45326;SDS011;31062;49.678;24.560;2023-07-29T15:35:24;2.53;;;1.77;;
45326;SDS011;31062;49.678;24.560;2023-07-29T15:38:09;2.28;;;1.88;;
45326;SDS011;31062;49.678;24.560;2023-07-29T15:40:55;3.33;;;2.10;;
45326;SDS011;31062;49.678;24.560;2023-07-29T15:43:41;5.97;;;2.95;;
45326;SDS011;31062;49.678;24.560;2023-07-29T15:46:27;2.88;;;1.70;;
45326;SDS011;31062;49.678;24.560;2023-07-29T15:49:13;3.67;;;1.50;;
45326;SDS011;31062;49.678;24.560;2023-07-29T15:51:59;2.10;;;1.98;;
45326;SDS011;31062;49.678;24.560;2023-07-29T15:54:45;2.97;;;2.03;;
45326;SDS011;31062;49.678;24.560;2023-07-29T15:57:33;4.25;;;2.40;;
45326;SDS011;31062;49.678;24.560;2023-07-29T16:00:18;2.75;;;2.22;;
45326;SDS011;31062;49.678;24.560;2023-07-29T16:03:07;1.88;;;1.77;;
45326;SDS011;31062;49.678;24.560;2023-07-29T16:05:53;2.30;;;1.70;;
45326;SDS011;31062;49.678;24.560;2023-07-29T16:08:38;5.30;;;1.90;;
45326;SDS011;31062;49.678;24.560;2023-07-29T16:11:24;1.77;;;1.67;;
45326;SDS011;31062;49.678;24.560;2023-07-29T16:14:12;4.15;;;1.40;;
45326;SDS011;31062;49.678;24.560;2023-07-29T16:17:00;5.28;;;1.80;;
45326;SDS011;31062;49.678;24.560;2023-07-29T16:19:58;10.48;;;2.50;;
45326;SDS011;31062;49.678;24.560;2023-07-29T16:22:45;4.40;;;2.15;;
45326;SDS011;31062;49.678;24.560;2023-07-29T16:25:30;2.50;;;1.42;;
45326;SDS011;31062;49.678;24.560;2023-07-29T16:28:16;5.18;;;1.90;;
45326;SDS011;31062;49.678;24.560;2023-07-29T16:31:02;3.90;;;1.60;;
45326;SDS011;31062;49.678;24.560;2023-07-29T16:33:48;3.60;;;1.90;;
45326;SDS011;31062;49.678;24.560;2023-07-29T16:36:35;2.20;;;1.55;;
45326;SDS011;31062;49.678;24.560;2023-07-29T16:39:21;2.40;;;2.15;;
45326;SDS011;31062;49.678;24.560;2023-07-29T16:42:07;3.28;;;2.08;;
45326;SDS011;31062;49.678;24.560;2023-07-29T16:44:53;3.60;;;2.00;;